Time;durP1;ratioP1;P1;durP2;ratioP2;P2;SDS_P1;SDS_P2;PMS_P1;PMS_P2;Temp;Humidity;BMP_temperature;BMP_pressure;BME280_temperature;BME280_humidity;BME280_pressure;Samples;Min_cycle;Max_cycle;Signal;HPM_P1;HPM_P2
2022/01/02 00:00:33;;;;;;;7.63;4.63;;;5.60;99.90;;;;;;5053972;28;20648;-62
2022/01/02 00:03:03;;;;;;;7.20;5.65;;;5.50;99.90;;;;;;5053614;28;20689;-62
2022/01/02 00:05:32;;;;;;;6.82;5.55;;;5.50;99.90;;;;;;5054240;28;20189;-63
2022/01/02 00:08:09;;;;;;;6.85;5.05;;;5.50;99.90;;;;;;5053727;28;20209;-62
2022/01/02 00:10:56;;;;;;;5.40;4.03;;;5.40;99.90;;;;;;5054113;28;20193;-62
2022/01/02 00:13:28;;;;;;;5.72;4.93;;;5.30;99.90;;;;;;5053522;28;20245;-62
2022/01/02 00:15:56;;;;;;;5.68;5.03;;;5.40;99.90;;;;;;5053717;28;20184;-61
2022/01/02 00:18:26;;;;;;;4.97;4.47;;;5.40;99.90;;;;;;5053897;28;20165;-62
2022/01/02 00:20:52;;;;;;;5.32;4.47;;;5.40;99.90;;;;;;5053839;28;20168;-63
2022/01/02 00:23:29;;;;;;;5.28;4.35;;;5.50;99.90;;;;;;5053175;28;20177;-62
2022/01/02 00:25:58;;;;;;;6.95;5.50;;;5.50;99.90;;;;;;5053926;28;20268;-62
2022/01/02 00:28:27;;;;;;;8.82;5.45;;;5.50;99.90;;;;;;5053605;28;20205;-62
2022/01/02 00:30:54;;;;;;;4.80;3.55;;;5.50;99.90;;;;;;5053523;28;20177;-62
2022/01/02 00:33:20;;;;;;;5.85;3.92;;;5.40;99.90;;;;;;5052926;28;20166;-63
2022/01/02 00:35:46;;;;;;;5.13;4.63;;;5.40;99.90;;;;;;5053765;28;20263;-61
2022/01/02 00:38:22;;;;;;;8.27;5.78;;;5.30;99.90;;;;;;5053474;28;20201;-62
2022/01/02 00:40:52;;;;;;;7.72;5.63;;;5.30;99.90;;;;;;5053507;28;20267;-62
2022/01/02 00:43:26;;;;;;;5.60;3.55;;;5.20;99.90;;;;;;5053205;28;20169;-63
2022/01/02 00:45:52;;;;;;;7.22;4.85;;;5.20;99.90;;;;;;5052122;28;20205;-63
2022/01/02 00:48:28;;;;;;;6.03;4.97;;;5.20;99.90;;;;;;5053960;28;20217;-62
2022/01/02 00:51:02;;;;;;;5.65;3.75;;;5.20;99.90;;;;;;5053737;28;20173;-62
2022/01/02 00:53:32;;;;;;;9.00;5.15;;;5.20;99.90;;;;;;5052528;28;20181;-63
2022/01/02 00:56:00;;;;;;;4.13;3.13;;;5.20;99.90;;;;;;5053398;28;20161;-61
2022/01/02 00:59:02;;;;;;;4.82;3.85;;;5.20;99.90;;;;;;5057891;28;20627;-61
2022/01/02 01:01:33;;;;;;;6.32;3.90;;;5.20;99.90;;;;;;5071547;28;20199;-62
2022/01/02 01:04:00;;;;;;;4.85;3.75;;;5.20;99.90;;;;;;5073188;28;20221;-61
2022/01/02 01:06:31;;;;;;;5.38;3.78;;;5.20;99.90;;;;;;5073277;28;20196;-61
2022/01/02 01:09:02;;;;;;;7.63;4.47;;;5.20;99.90;;;;;;5073315;28;20247;-61
2022/01/02 01:11:28;;;;;;;5.90;4.38;;;5.20;99.90;;;;;;5073266;28;20181;-61
2022/01/02 01:13:56;;;;;;;5.85;4.47;;;5.10;99.90;;;;;;5073578;28;20241;-61
2022/01/02 01:16:22;;;;;;;6.22;5.45;;;5.10;99.90;;;;;;5072923;28;20183;-61
2022/01/02 01:18:48;;;;;;;7.07;4.33;;;5.10;99.90;;;;;;5073157;28;20173;-63
2022/01/02 01:21:15;;;;;;;7.38;5.10;;;5.00;99.90;;;;;;5072810;28;20754;-62
2022/01/02 01:23:41;;;;;;;6.63;4.57;;;5.00;99.90;;;;;;5073031;28;20200;-62
2022/01/02 01:26:09;;;;;;;5.65;3.92;;;4.90;99.90;;;;;;5073048;28;20169;-61
2022/01/02 01:28:35;;;;;;;6.07;5.47;;;4.90;99.90;;;;;;5073060;28;20643;-62
2022/01/02 01:31:01;;;;;;;5.00;4.18;;;4.80;99.90;;;;;;5073007;28;20272;-61
2022/01/02 01:33:27;;;;;;;4.10;3.80;;;4.80;99.90;;;;;;5073146;28;20209;-62
2022/01/02 01:35:53;;;;;;;8.57;4.57;;;4.80;99.90;;;;;;5073176;28;20453;-62
2022/01/02 01:38:18;;;;;;;6.53;4.13;;;4.80;99.90;;;;;;5072990;28;20207;-62
2022/01/02 01:40:53;;;;;;;5.60;3.83;;;4.70;99.90;;;;;;5072848;28;20310;-62
2022/01/02 01:43:23;;;;;;;4.50;3.78;;;4.80;99.90;;;;;;5072607;28;20251;-62
2022/01/02 01:45:48;;;;;;;6.30;4.60;;;4.70;99.90;;;;;;5075074;28;20564;-62
2022/01/02 01:48:14;;;;;;;5.00;3.50;;;4.70;99.90;;;;;;5076527;28;20338;-62
2022/01/02 01:50:41;;;;;;;7.70;4.93;;;4.70;99.90;;;;;;5076570;28;20357;-63
2022/01/02 01:53:08;;;;;;;5.25;3.63;;;4.70;99.90;;;;;;5076026;28;20267;-63
2022/01/02 01:55:36;;;;;;;4.10;3.80;;;4.70;99.90;;;;;;5076564;28;20242;-62
2022/01/02 01:58:03;;;;;;;4.95;4.38;;;4.70;99.90;;;;;;5075780;28;20330;-63
2022/01/02 02:00:30;;;;;;;6.90;3.95;;;4.70;99.90;;;;;;5056515;28;20180;-63
2022/01/02 02:02:56;;;;;;;3.72;3.50;;;4.80;99.90;;;;;;5055714;28;20177;-63
2022/01/02 02:05:22;;;;;;;4.20;3.37;;;4.80;99.90;;;;;;5056389;28;20624;-61
2022/01/02 02:07:48;;;;;;;6.60;5.23;;;4.70;99.90;;;;;;5056019;28;20459;-62
2022/01/02 02:10:18;;;;;;;4.57;4.20;;;4.80;99.90;;;;;;5056109;28;20447;-63
2022/01/02 02:12:46;;;;;;;6.47;3.70;;;4.80;99.90;;;;;;5055882;28;20169;-61
2022/01/02 02:15:16;;;;;;;5.28;4.82;;;4.70;99.90;;;;;;5056893;28;20177;-62
2022/01/02 02:17:44;;;;;;;5.90;5.18;;;4.70;99.90;;;;;;5056300;28;20194;-63
2022/01/02 02:20:14;;;;;;;5.50;4.88;;;4.70;99.90;;;;;;5056784;28;20178;-62
2022/01/02 02:22:44;;;;;;;4.10;3.80;;;4.60;99.90;;;;;;5056191;28;20177;-63
2022/01/02 02:25:10;;;;;;;4.20;3.83;;;4.60;99.90;;;;;;5056110;28;20170;-60
2022/01/02 02:27:36;;;;;;;3.70;3.35;;;4.60;99.90;;;;;;5055766;28;20213;-62
2022/01/02 02:30:03;;;;;;;5.30;4.80;;;4.60;99.90;;;;;;5055920;28;20568;-61
2022/01/02 02:32:29;;;;;;;5.80;4.43;;;4.60;99.90;;;;;;5055607;28;20638;-62
2022/01/02 02:34:55;;;;;;;3.77;3.47;;;4.50;99.90;;;;;;5055889;28;20173;-62
2022/01/02 02:37:25;;;;;;;6.07;4.53;;;4.50;99.90;;;;;;5056226;28;20424;-64
2022/01/02 02:39:52;;;;;;;5.15;4.25;;;4.50;99.90;;;;;;5056656;28;20170;-63
2022/01/02 02:42:31;;;;;;;4.30;3.55;;;4.50;99.90;;;;;;5056009;28;20647;-62
2022/01/02 02:48:59;;;;;;;7.72;5.07;;;4.50;99.90;;;;;;5056531;28;20555;-63
2022/01/02 02:50:45;;;;;;;6.00;3.38;;;4.50;99.90;;;;;;5055701;28;20181;-62
2022/01/02 02:53:12;;;;;;;6.82;4.15;;;4.40;99.90;;;;;;5054993;28;20248;-62
2022/01/02 02:55:43;;;;;;;4.00;3.53;;;4.40;99.90;;;;;;5055652;28;20173;-62
2022/01/02 02:58:38;;;;;;;4.28;3.75;;;4.40;99.90;;;;;;5056269;28;20280;-61
2022/01/02 03:00:55;;;;;;;3.22;3.03;;;4.30;99.90;;;;;;5075232;28;20176;-62
2022/01/02 03:03:21;;;;;;;2.63;2.42;;;4.30;99.90;;;;;;5074757;28;20209;-62
2022/01/02 03:05:46;;;;;;;4.00;3.50;;;4.20;99.90;;;;;;5075762;28;20173;-63
2022/01/02 03:08:12;;;;;;;3.53;3.23;;;4.20;99.90;;;;;;5075876;28;20227;-61
2022/01/02 03:10:38;;;;;;;7.27;3.70;;;4.30;99.90;;;;;;5075333;28;20179;-61
2022/01/02 03:13:04;;;;;;;4.90;4.43;;;4.40;99.90;;;;;;5075383;28;20570;-62
2022/01/02 03:15:29;;;;;;;5.43;4.47;;;4.30;99.90;;;;;;5075623;28;20565;-61
2022/01/02 03:17:55;;;;;;;3.90;3.50;;;4.40;99.90;;;;;;5074987;28;20192;-63
2022/01/02 03:20:23;;;;;;;3.77;3.33;;;4.50;99.90;;;;;;5075192;28;20180;-63
2022/01/02 03:22:49;;;;;;;6.28;3.92;;;4.50;99.90;;;;;;5074735;28;20550;-61
2022/01/02 03:25:16;;;;;;;4.37;3.70;;;4.60;99.90;;;;;;5075222;28;20276;-62
2022/01/02 03:27:42;;;;;;;7.95;4.60;;;4.50;99.90;;;;;;5075046;28;20228;-61
2022/01/02 03:30:11;;;;;;;3.63;3.40;;;4.50;99.90;;;;;;5074969;28;20579;-61
2022/01/02 03:32:37;;;;;;;3.95;3.65;;;4.50;99.90;;;;;;5074893;28;20588;-63
2022/01/02 03:35:03;;;;;;;3.35;3.15;;;4.50;99.90;;;;;;5075386;28;20501;-62
2022/01/02 03:37:32;;;;;;;5.10;3.15;;;4.60;99.90;;;;;;5078342;28;20256;-62
2022/01/02 03:39:58;;;;;;;5.18;4.72;;;4.60;99.90;;;;;;5080243;28;20523;-62
2022/01/02 03:42:24;;;;;;;3.57;3.27;;;4.60;99.90;;;;;;5079752;28;20273;-62
2022/01/02 03:44:50;;;;;;;6.40;5.37;;;4.70;99.90;;;;;;5080293;28;20425;-63
2022/01/02 03:47:15;;;;;;;3.57;3.27;;;4.70;99.90;;;;;;5078529;28;20541;-61
2022/01/02 03:49:41;;;;;;;4.57;4.10;;;4.70;99.90;;;;;;5079295;28;20868;-61
2022/01/02 03:52:08;;;;;;;7.17;3.80;;;4.80;99.90;;;;;;5077213;28;20429;-62
2022/01/02 03:54:34;;;;;;;3.30;3.03;;;4.90;99.90;;;;;;5074252;28;20192;-62
2022/01/02 03:57:00;;;;;;;7.22;3.45;;;4.90;99.90;;;;;;5074128;28;20191;-66
2022/01/02 03:59:25;;;;;;;3.78;3.45;;;4.90;99.90;;;;;;5061755;28;20192;-61
2022/01/02 04:01:51;;;;;;;6.40;3.83;;;4.80;99.90;;;;;;5053847;28;20536;-62
2022/01/02 04:04:17;;;;;;;5.80;3.80;;;4.80;99.90;;;;;;5054201;28;20551;-62
2022/01/02 04:06:43;;;;;;;4.50;4.10;;;4.80;99.90;;;;;;5053787;28;20541;-62
2022/01/02 04:09:08;;;;;;;4.80;4.40;;;4.90;99.90;;;;;;5053589;28;20464;-63
2022/01/02 04:11:34;;;;;;;5.00;3.60;;;4.80;99.90;;;;;;5053581;28;20412;-62
2022/01/02 04:14:00;;;;;;;6.07;3.77;;;4.90;99.90;;;;;;5053921;28;20165;-62
2022/01/02 04:16:25;;;;;;;4.00;2.90;;;4.90;99.90;;;;;;5053881;28;20186;-64
2022/01/02 04:18:51;;;;;;;4.07;3.43;;;4.80;99.90;;;;;;5053610;28;20173;-62
2022/01/02 04:21:17;;;;;;;3.90;3.43;;;4.80;99.90;;;;;;5053505;28;20178;-64
2022/01/02 04:23:43;;;;;;;5.53;4.17;;;4.70;99.90;;;;;;5053964;28;20820;-62
2022/01/02 04:26:08;;;;;;;4.87;3.20;;;4.70;99.90;;;;;;5053728;28;20525;-62
2022/01/02 04:28:34;;;;;;;3.83;3.13;;;4.70;99.90;;;;;;5053728;28;20236;-63
2022/01/02 04:31:00;;;;;;;5.83;4.33;;;4.70;99.90;;;;;;5053394;28;20227;-64
2022/01/02 04:33:26;;;;;;;4.70;3.70;;;4.70;99.90;;;;;;5053754;28;20407;-62
2022/01/02 04:35:51;;;;;;;5.40;3.50;;;4.70;99.90;;;;;;5053546;28;20536;-62
2022/01/02 04:38:17;;;;;;;3.90;3.57;;;4.60;99.90;;;;;;5053584;28;20192;-62
2022/01/02 04:40:43;;;;;;;3.67;3.37;;;4.60;99.90;;;;;;5053338;28;20174;-62
2022/01/02 04:43:08;;;;;;;6.00;4.33;;;4.60;99.90;;;;;;5053124;28;20250;-61
2022/01/02 04:45:34;;;;;;;5.07;3.37;;;4.50;99.90;;;;;;5053665;28;20188;-61
2022/01/02 04:48:00;;;;;;;7.03;3.73;;;4.50;99.90;;;;;;5053344;28;20545;-61
2022/01/02 04:50:26;;;;;;;5.00;3.67;;;4.50;99.90;;;;;;5053111;28;20506;-61
2022/01/02 04:52:51;;;;;;;4.63;4.30;;;4.50;99.90;;;;;;5053014;28;20172;-62
2022/01/02 04:55:18;;;;;;;5.37;3.63;;;4.50;99.90;;;;;;5053464;28;20284;-61
2022/01/02 04:57:44;;;;;;;3.50;3.20;;;4.50;99.90;;;;;;5053311;28;20185;-62
2022/01/02 05:00:10;;;;;;;4.57;4.17;;;4.50;99.90;;;;;;5071624;28;20527;-62
2022/01/02 05:02:35;;;;;;;5.00;4.60;;;4.40;99.90;;;;;;5072780;28;20631;-61
2022/01/02 05:05:02;;;;;;;5.33;4.07;;;4.40;99.90;;;;;;5073114;28;20195;-61
2022/01/02 05:07:27;;;;;;;6.53;4.43;;;4.30;99.90;;;;;;5073276;28;20573;-61
2022/01/02 05:09:54;;;;;;;6.50;3.30;;;4.20;99.90;;;;;;5073263;28;20241;-61
2022/01/02 05:12:19;;;;;;;4.00;3.03;;;4.20;99.90;;;;;;5072896;28;20183;-62
2022/01/02 05:14:45;;;;;;;4.53;4.13;;;4.20;99.90;;;;;;5073211;28;20627;-62
2022/01/02 05:17:11;;;;;;;3.30;3.00;;;4.20;99.90;;;;;;5073004;28;20184;-62
2022/01/02 05:19:37;;;;;;;4.25;3.95;;;4.20;99.90;;;;;;5073078;28;20534;-62
2022/01/02 05:22:02;;;;;;;5.03;3.70;;;4.20;99.90;;;;;;5076676;28;20177;-62
2022/01/02 05:24:28;;;;;;;3.90;2.90;;;4.20;99.90;;;;;;5077050;28;20173;-62
2022/01/02 05:26:55;;;;;;;4.73;3.77;;;4.20;99.90;;;;;;5076992;28;20438;-61
2022/01/02 05:29:21;;;;;;;7.55;3.80;;;4.20;99.90;;;;;;5076904;28;20546;-62
2022/01/02 05:31:47;;;;;;;4.47;3.65;;;4.20;99.90;;;;;;5076680;28;20177;-62
2022/01/02 05:34:12;;;;;;;5.00;4.37;;;4.10;99.90;;;;;;5076780;28;20191;-61
2022/01/02 05:36:38;;;;;;;6.40;5.00;;;4.10;99.90;;;;;;5076940;28;20662;-62
2022/01/02 05:39:05;;;;;;;4.03;3.63;;;4.20;99.90;;;;;;5076891;28;20646;-61
2022/01/02 05:41:32;;;;;;;5.72;4.80;;;4.10;99.90;;;;;;5076345;28;20453;-62
2022/01/02 05:43:58;;;;;;;6.95;3.47;;;4.10;99.90;;;;;;5076738;28;20173;-62
2022/01/02 05:46:23;;;;;;;4.70;3.50;;;4.10;99.90;;;;;;5076640;28;20265;-62
2022/01/02 05:48:50;;;;;;;5.47;4.70;;;4.10;99.90;;;;;;5076472;28;20654;-62
2022/01/02 05:51:16;;;;;;;3.92;3.55;;;4.20;99.90;;;;;;5076288;28;20175;-62
2022/01/02 05:53:41;;;;;;;7.78;5.05;;;4.20;99.90;;;;;;5076445;28;20508;-61
2022/01/02 05:56:07;;;;;;;4.07;3.63;;;4.20;99.90;;;;;;5076489;28;20165;-62
2022/01/02 05:58:33;;;;;;;4.73;3.57;;;4.30;99.90;;;;;;5071272;28;20173;-61
2022/01/02 06:00:59;;;;;;;5.70;4.20;;;4.30;99.90;;;;;;5056370;28;20758;-64
2022/01/02 06:03:24;;;;;;;5.43;3.90;;;4.20;99.90;;;;;;5056099;28;20558;-61
2022/01/02 06:05:50;;;;;;;5.27;4.17;;;4.30;99.90;;;;;;5056238;28;20170;-61
2022/01/02 06:08:15;;;;;;;4.50;4.13;;;4.20;99.90;;;;;;5056289;28;20202;-62
2022/01/02 06:10:41;;;;;;;3.10;2.90;;;4.30;99.90;;;;;;5056275;28;20299;-61
2022/01/02 06:13:07;;;;;;;4.10;3.70;;;4.30;99.90;;;;;;5055668;28;20531;-62
2022/01/02 06:15:33;;;;;;;3.67;3.37;;;4.30;99.90;;;;;;5056365;28;20198;-62
2022/01/02 06:17:59;;;;;;;3.70;2.93;;;4.40;99.90;;;;;;5054720;28;20529;-62
2022/01/02 06:20:24;;;;;;;6.73;4.80;;;4.30;99.90;;;;;;5055962;28;20173;-62
2022/01/02 06:22:50;;;;;;;5.90;4.20;;;4.40;99.90;;;;;;5055951;28;20600;-62
2022/01/02 06:25:16;;;;;;;5.20;3.73;;;4.50;99.90;;;;;;5056062;28;20208;-62
2022/01/02 06:27:42;;;;;;;6.18;3.70;;;4.40;99.90;;;;;;5055514;28;20259;-61
2022/01/02 06:30:09;;;;;;;4.73;2.90;;;4.40;99.90;;;;;;5056047;28;20636;-61
2022/01/02 06:32:34;;;;;;;4.20;3.10;;;4.40;99.90;;;;;;5055233;28;20408;-61
2022/01/02 06:35:00;;;;;;;5.27;4.33;;;4.40;99.90;;;;;;5054557;28;20165;-61
2022/01/02 06:37:26;;;;;;;3.30;3.00;;;4.50;99.90;;;;;;5055694;28;20196;-61
2022/01/02 06:39:51;;;;;;;3.40;3.10;;;4.50;99.90;;;;;;5055795;28;20201;-61
2022/01/02 06:42:17;;;;;;;2.87;2.57;;;4.50;99.90;;;;;;5055163;28;20169;-62
2022/01/02 06:44:43;;;;;;;5.70;4.77;;;4.50;99.90;;;;;;5055588;28;20535;-61
2022/01/02 06:47:08;;;;;;;3.50;2.90;;;4.50;99.90;;;;;;5055609;28;20435;-61
2022/01/02 06:49:34;;;;;;;4.00;3.70;;;4.50;99.90;;;;;;5055495;28;20201;-62
2022/01/02 06:52:00;;;;;;;3.10;2.80;;;4.50;99.90;;;;;;5054979;28;20262;-62
2022/01/02 06:54:26;;;;;;;4.10;3.03;;;4.50;99.90;;;;;;5055414;28;20177;-61
2022/01/02 06:56:51;;;;;;;5.33;4.93;;;4.50;99.90;;;;;;5055171;28;20194;-62
2022/01/02 06:59:17;;;;;;;4.17;2.70;;;4.50;99.90;;;;;;5066201;28;20577;-62
2022/01/02 07:01:44;;;;;;;5.67;3.90;;;4.50;99.90;;;;;;5075065;28;20595;-62
2022/01/02 07:04:10;;;;;;;3.00;2.80;;;4.50;99.90;;;;;;5075756;28;20287;-63
2022/01/02 07:06:35;;;;;;;3.20;2.90;;;4.60;99.90;;;;;;5075182;28;20297;-62
2022/01/02 07:09:01;;;;;;;4.47;4.17;;;4.60;99.90;;;;;;5075168;28;20619;-61
2022/01/02 07:11:27;;;;;;;5.30;4.90;;;4.70;99.90;;;;;;5074757;28;20203;-62
2022/01/02 07:13:52;;;;;;;3.83;3.37;;;4.80;99.90;;;;;;5075089;28;20164;-62
2022/01/02 07:16:18;;;;;;;4.73;4.13;;;4.80;99.90;;;;;;5074750;28;20268;-62
2022/01/02 07:18:43;;;;;;;5.93;4.70;;;4.70;99.90;;;;;;5075063;28;20180;-61
2022/01/02 07:21:09;;;;;;;4.37;3.97;;;4.80;99.90;;;;;;5074399;28;20258;-62
2022/01/02 07:23:35;;;;;;;4.03;3.20;;;4.60;99.90;;;;;;5074855;28;20169;-61
2022/01/02 07:26:00;;;;;;;4.37;3.57;;;4.60;99.90;;;;;;5074730;28;20183;-62
2022/01/02 07:28:26;;;;;;;7.00;4.30;;;4.60;99.90;;;;;;5074575;28;20203;-62
2022/01/02 07:30:52;;;;;;;6.90;3.80;;;4.60;99.90;;;;;;5074822;28;20197;-61
2022/01/02 07:33:17;;;;;;;7.00;4.23;;;4.70;99.90;;;;;;5074271;28;20456;-64
2022/01/02 07:35:43;;;;;;;3.73;3.43;;;4.70;99.90;;;;;;5074657;28;20165;-62
2022/01/02 07:38:09;;;;;;;5.43;4.60;;;4.80;99.90;;;;;;5074331;28;20275;-61
2022/01/02 07:40:34;;;;;;;4.00;3.60;;;4.80;99.90;;;;;;5073543;28;20181;-62
2022/01/02 07:43:00;;;;;;;4.17;3.77;;;4.70;99.90;;;;;;5073381;28;20203;-62
2022/01/02 07:45:25;;;;;;;9.73;5.23;;;4.80;99.90;;;;;;5074121;28;20222;-61
2022/01/02 07:47:51;;;;;;;3.83;3.40;;;4.80;99.90;;;;;;5074148;28;20188;-61
2022/01/02 07:50:18;;;;;;;6.27;4.07;;;4.80;99.90;;;;;;5074270;28;20291;-63
2022/01/02 07:52:43;;;;;;;5.55;4.95;;;4.80;99.90;;;;;;5073807;28;20177;-62
2022/01/02 07:55:09;;;;;;;4.20;3.63;;;4.90;99.90;;;;;;5074344;28;20168;-62
2022/01/02 07:57:35;;;;;;;7.10;3.70;;;4.90;99.90;;;;;;5074218;28;20526;-62
2022/01/02 08:00:01;;;;;;;5.60;5.10;;;4.90;99.90;;;;;;5056911;28;20169;-63
2022/01/02 08:02:27;;;;;;;7.07;3.75;;;5.00;99.90;;;;;;5053797;28;20419;-66
2022/01/02 08:04:53;;;;;;;4.83;4.23;;;5.00;99.90;;;;;;5053975;28;20667;-66
2022/01/02 08:07:18;;;;;;;4.33;3.60;;;5.00;99.90;;;;;;5053771;28;20194;-66
2022/01/02 08:09:44;;;;;;;4.67;4.30;;;5.00;99.90;;;;;;5053756;28;20194;-62
2022/01/02 08:12:09;;;;;;;5.95;4.57;;;5.10;99.90;;;;;;5069560;28;20800;-64
2022/01/02 08:14:35;;;;;;;6.47;4.88;;;5.10;99.90;;;;;;5070328;28;20405;-63
2022/01/02 08:17:01;;;;;;;4.30;3.37;;;5.20;99.90;;;;;;5072715;28;20197;-66
2022/01/02 08:19:27;;;;;;;4.78;4.30;;;5.20;99.90;;;;;;5073114;28;20177;-64
2022/01/02 08:21:52;;;;;;;5.13;4.60;;;5.30;99.90;;;;;;5072893;28;20176;-63
2022/01/02 08:24:18;;;;;;;4.60;3.63;;;5.40;99.90;;;;;;5072108;28;20214;-64
2022/01/02 08:26:45;;;;;;;4.67;4.03;;;5.50;99.90;;;;;;5071306;28;20197;-62
2022/01/02 08:29:11;;;;;;;5.10;4.25;;;5.60;99.90;;;;;;5071439;28;20192;-64
2022/01/02 08:31:37;;;;;;;6.50;4.77;;;5.90;99.90;;;;;;5071393;28;20181;-65
2022/01/02 08:34:02;;;;;;;7.03;5.20;;;6.10;99.90;;;;;;5071474;28;20174;-65
2022/01/02 08:36:28;;;;;;;5.77;5.20;;;6.50;99.90;;;;;;5071245;28;20207;-63
2022/01/02 08:38:54;;;;;;;6.17;5.23;;;7.30;99.90;;;;;;5072069;28;20223;-62
2022/01/02 08:41:19;;;;;;;5.03;4.20;;;8.10;99.90;;;;;;5073035;28;20314;-64
2022/01/02 08:43:45;;;;;;;5.70;4.07;;;8.70;99.90;;;;;;5071710;28;20543;-64
2022/01/02 08:46:11;;;;;;;4.63;4.23;;;9.30;99.90;;;;;;5072999;28;20171;-65
2022/01/02 08:48:37;;;;;;;4.00;3.23;;;10.00;99.90;;;;;;5072929;28;20279;-65
2022/01/02 08:51:02;;;;;;;4.33;3.17;;;10.60;99.90;;;;;;5073002;28;20584;-65
2022/01/02 08:53:28;;;;;;;4.17;3.83;;;10.70;99.90;;;;;;5072867;28;20221;-67
2022/01/02 08:55:54;;;;;;;3.53;2.70;;;10.70;99.90;;;;;;5073130;28;20176;-64
2022/01/02 08:58:20;;;;;;;3.20;2.90;;;10.80;99.90;;;;;;5069887;28;20249;-64
2022/01/02 09:00:46;;;;;;;3.53;3.20;;;11.10;99.90;;;;;;5053133;28;20791;-65
2022/01/02 09:03:12;;;;;;;4.27;3.87;;;11.50;99.90;;;;;;5052453;28;20402;-65
2022/01/02 09:05:38;;;;;;;3.83;3.43;;;12.20;99.90;;;;;;5052991;28;20766;-65
2022/01/02 09:08:04;;;;;;;3.30;3.00;;;12.50;99.90;;;;;;5052683;28;20466;-65
2022/01/02 09:10:29;;;;;;;4.30;3.90;;;12.40;99.90;;;;;;5052972;28;20411;-65
2022/01/02 09:12:55;;;;;;;3.50;2.73;;;12.20;99.90;;;;;;5052875;28;20181;-65
2022/01/02 09:15:21;;;;;;;2.73;2.53;;;11.90;99.90;;;;;;5052945;28;20172;-64
2022/01/02 09:17:46;;;;;;;2.77;2.57;;;11.90;99.90;;;;;;5052698;28;20194;-64
2022/01/02 09:20:17;;;;;;;3.13;2.93;;;12.10;99.90;;;;;;5052706;28;20169;-65
2022/01/02 09:22:43;;;;;;;3.23;2.80;;;12.30;99.90;;;;;;5052276;28;20177;-65
2022/01/02 09:25:10;;;;;;;2.77;2.53;;;12.40;99.90;;;;;;5052794;28;20387;-64
2022/01/02 09:27:37;;;;;;;3.50;3.20;;;12.80;99.90;;;;;;5052826;28;20417;-64
2022/01/02 09:30:04;;;;;;;2.90;2.70;;;13.30;99.90;;;;;;5052646;28;20468;-64
2022/01/02 09:32:32;;;;;;;3.83;3.47;;;13.80;99.90;;;;;;5052588;28;20408;-64
2022/01/02 09:34:58;;;;;;;2.67;2.47;;;14.10;99.90;;;;;;5052798;28;20819;-64
2022/01/02 09:37:24;;;;;;;2.93;2.70;;;14.10;99.90;;;;;;5052565;28;20502;-65
2022/01/02 09:39:49;;;;;;;3.43;3.13;;;14.00;99.90;;;;;;5052996;28;20256;-65
2022/01/02 09:42:15;;;;;;;3.90;3.60;;;13.70;99.90;;;;;;5052834;28;20177;-64
2022/01/02 09:44:41;;;;;;;3.33;3.03;;;13.30;99.90;;;;;;5052859;28;20177;-66
2022/01/02 09:47:08;;;;;;;2.60;2.40;;;13.00;99.90;;;;;;5052545;28;20201;-65
2022/01/02 09:49:38;;;;;;;2.93;2.73;;;12.70;99.90;;;;;;5052804;28;20235;-68
2022/01/02 09:52:04;;;;;;;2.67;2.47;;;12.30;99.90;;;;;;5052234;28;20809;-68
2022/01/02 09:54:32;;;;;;;3.93;3.60;;;12.00;99.90;;;;;;5052632;28;20381;-66
2022/01/02 09:56:58;;;;;;;2.73;2.50;;;11.70;99.90;;;;;;5053229;28;20410;-67
2022/01/02 09:59:23;;;;;;;3.07;2.80;;;11.40;99.90;;;;;;5064476;28;20739;-67
2022/01/02 10:01:49;;;;;;;4.80;4.07;;;11.30;99.90;;;;;;5071816;28;20197;-67
2022/01/02 10:04:37;;;;;;;3.03;2.73;;;11.20;99.90;;;;;;5072762;28;20674;-66
2022/01/02 10:07:29;;;;;;;3.50;2.83;;;11.10;99.90;;;;;;5075295;28;20217;-66
2022/01/02 10:09:54;;;;;;;4.77;3.70;;;11.10;99.90;;;;;;5071249;28;20442;-65
2022/01/02 10:12:26;;;;;;;3.90;3.60;;;11.00;99.90;;;;;;5075707;28;20411;-65
2022/01/02 10:15:16;;;;;;;4.20;3.70;;;10.90;99.90;;;;;;5076079;28;20165;-65
2022/01/02 10:17:50;;;;;;;6.22;3.47;;;10.80;99.90;;;;;;5076231;28;20188;-67
2022/01/02 10:20:16;;;;;;;5.68;3.90;;;10.70;99.90;;;;;;5076232;28;20248;-67
2022/01/02 10:23:09;;;;;;;3.80;3.57;;;10.60;99.90;;;;;;5075548;28;20211;-67
2022/01/02 10:25:38;;;;;;;3.85;3.30;;;10.60;99.90;;;;;;5075990;28;20177;-66
2022/01/02 10:28:37;;;;;;;4.75;3.42;;;10.70;99.90;;;;;;5075562;28;20280;-66
2022/01/02 10:31:03;;;;;;;4.55;3.35;;;10.70;99.90;;;;;;5075660;28;20165;-65
2022/01/02 10:33:45;;;;;;;3.53;3.10;;;10.70;99.90;;;;;;5075548;28;20227;-65
2022/01/02 10:36:11;;;;;;;3.80;3.50;;;10.60;99.90;;;;;;5075705;28;20190;-66
2022/01/02 10:38:36;;;;;;;4.60;3.40;;;10.40;99.90;;;;;;5075852;28;20659;-66
2022/01/02 10:41:03;;;;;;;3.47;3.10;;;10.20;99.90;;;;;;5075357;28;20219;-67
2022/01/02 10:43:33;;;;;;;3.28;2.75;;;10.10;99.90;;;;;;5075475;28;20184;-67
2022/01/02 10:46:07;;;;;;;3.22;2.78;;;10.00;99.90;;;;;;5061678;28;20173;-66
2022/01/02 10:48:35;;;;;;;3.47;3.00;;;9.90;99.90;;;;;;5062722;28;20205;-65
2022/01/02 10:51:06;;;;;;;3.33;3.03;;;9.80;99.90;;;;;;5064598;28;20177;-66
2022/01/02 10:53:34;;;;;;;3.75;3.45;;;9.70;99.90;;;;;;5063128;28;20277;-67
2022/01/02 10:56:01;;;;;;;4.22;3.53;;;9.70;99.90;;;;;;5062644;28;20184;-63
2022/01/02 10:58:27;;;;;;;4.25;3.17;;;9.70;99.90;;;;;;5070531;28;20635;-65
2022/01/02 11:00:59;;;;;;;5.85;3.60;;;9.70;99.90;;;;;;5075136;28;20180;-62
2022/01/02 11:03:24;;;;;;;4.15;3.75;;;9.70;99.90;;;;;;5074847;28;20192;-66
2022/01/02 11:06:04;;;;;;;5.63;4.43;;;9.80;99.90;;;;;;5075077;28;20222;-66
2022/01/02 11:08:33;;;;;;;4.65;3.63;;;9.90;99.90;;;;;;5074832;28;20528;-66
2022/01/02 11:10:59;;;;;;;4.07;3.67;;;10.00;99.90;;;;;;5074809;28;20623;-64
2022/01/02 11:13:25;;;;;;;5.57;3.75;;;10.00;99.90;;;;;;5059875;28;20185;-65
2022/01/02 11:15:53;;;;;;;3.72;3.22;;;10.00;99.90;;;;;;5055022;28;20174;-63
2022/01/02 11:18:19;;;;;;;3.65;3.33;;;10.10;99.90;;;;;;5053548;28;20584;-63
2022/01/02 11:20:45;;;;;;;7.00;4.50;;;10.10;99.90;;;;;;5054686;28;20201;-64
2022/01/02 11:23:22;;;;;;;3.60;3.03;;;10.20;99.90;;;;;;5054489;28;20579;-63
2022/01/02 11:26:08;;;;;;;3.22;2.95;;;10.20;99.90;;;;;;5054769;28;20169;-63
2022/01/02 11:28:38;;;;;;;4.05;3.70;;;10.30;99.90;;;;;;5054544;28;20664;-63
2022/01/02 11:31:06;;;;;;;3.38;3.08;;;10.50;99.90;;;;;;5054374;28;20177;-62
2022/01/02 11:33:40;;;;;;;4.30;3.90;;;10.50;99.90;;;;;;5070754;28;20225;-65
2022/01/02 11:36:31;;;;;;;4.25;3.50;;;10.60;99.90;;;;;;5074174;28;20169;-66
2022/01/02 11:39:11;;;;;;;4.65;3.67;;;10.60;99.90;;;;;;5074188;28;20165;-66
2022/01/02 11:41:41;;;;;;;4.38;3.97;;;10.70;99.90;;;;;;5052715;28;20537;-65
2022/01/02 11:44:11;;;;;;;4.40;3.20;;;10.80;99.90;;;;;;5054256;28;20256;-66
2022/01/02 11:46:46;;;;;;;5.80;3.25;;;10.90;99.90;;;;;;5056452;28;20204;-65
2022/01/02 11:49:20;;;;;;;3.78;3.40;;;11.00;99.90;;;;;;5053561;28;20213;-66
2022/01/02 11:56:56;;;;;;;4.70;3.28;;;11.10;99.90;;;;;;5053371;28;20648;-65
2022/01/02 11:59:40;;;;;;;9.32;3.67;;;11.00;99.90;;;;;;5053710;28;20224;-65
2022/01/02 12:02:14;;;;;;;3.80;3.40;;;11.10;99.90;;;;;;5052225;28;20170;-66
2022/01/02 12:05:11;;;;;;;4.30;2.33;;;11.10;99.90;;;;;;5052139;28;20186;-68
2022/01/02 12:07:50;;;;;;;1.70;1.42;;;11.20;99.90;;;;;;5050689;28;20190;-66
2022/01/02 12:10:16;;;;;;;1.30;1.20;;;11.30;99.90;;;;;;5051722;28;20177;-66
2022/01/02 12:12:59;;;;;;;1.47;1.23;;;11.50;99.90;;;;;;5051267;28;20171;-66
2022/01/02 12:15:33;;;;;;;1.07;1.03;;;11.80;99.90;;;;;;5051744;28;20909;-67
2022/01/02 12:18:19;;;;;;;3.03;1.60;;;12.00;99.90;;;;;;5053630;28;20416;-65
2022/01/02 12:21:00;;;;;;;1.40;1.30;;;12.30;99.90;;;;;;5053643;28;20174;-66
2022/01/02 12:23:42;;;;;;;1.80;1.70;;;12.40;99.90;;;;;;5053644;28;20401;-65
2022/01/02 12:26:21;;;;;;;1.67;1.57;;;12.60;99.90;;;;;;5053906;28;20398;-65
2022/01/02 12:29:01;;;;;;;1.40;1.30;;;12.80;99.90;;;;;;5053137;28;20502;-66
2022/01/02 12:31:35;;;;;;;1.00;0.90;;;13.00;99.10;;;;;;5053388;28;20399;-66
2022/01/02 12:34:18;;;;;;;1.50;1.40;;;13.30;98.50;;;;;;5053583;28;20938;-64
2022/01/02 12:36:50;;;;;;;1.23;1.17;;;13.50;98.80;;;;;;5051887;28;20433;-65
2022/01/02 12:39:29;;;;;;;1.20;1.20;;;13.80;97.70;;;;;;5051980;28;20398;-66
2022/01/02 12:42:12;;;;;;;1.27;1.17;;;14.00;97.90;;;;;;5053056;28;20807;-66
2022/01/02 12:44:38;;;;;;;1.00;1.00;;;14.20;97.10;;;;;;5053507;28;20964;-65
2022/01/02 12:47:06;;;;;;;1.33;1.17;;;14.50;97.10;;;;;;5053327;28;20514;-65
2022/01/02 12:49:38;;;;;;;2.00;0.90;;;14.70;96.80;;;;;;5053096;28;20458;-65
2022/01/02 12:52:15;;;;;;;1.93;1.83;;;14.90;96.80;;;;;;5052858;28;20773;-66
2022/01/02 12:54:43;;;;;;;2.20;2.00;;;15.10;96.80;;;;;;5053317;28;20758;-66
2022/01/02 12:57:11;;;;;;;1.50;1.37;;;15.20;96.50;;;;;;5053060;28;20896;-66
2022/01/02 12:59:38;;;;;;;1.00;1.00;;;15.40;95.60;;;;;;5066805;28;20418;-65
2022/01/02 13:02:12;;;;;;;2.07;1.57;;;15.50;95.40;;;;;;5072738;28;20926;-67
2022/01/02 13:04:39;;;;;;;1.30;1.00;;;15.60;95.80;;;;;;5072911;28;20436;-66
2022/01/02 13:07:12;;;;;;;1.40;1.30;;;15.60;95.30;;;;;;5073204;28;20427;-66